createdAt,value
2018-11-05T00:01:52.497Z,57.43
2018-11-05T00:04:21.004Z,57.80
2018-11-05T00:06:49.489Z,54.87
2018-11-05T00:09:17.967Z,60.43
2018-11-05T00:11:46.465Z,58.50
2018-11-05T00:14:14.965Z,51.53
2018-11-05T00:16:43.487Z,56.17
2018-11-05T00:19:11.997Z,54.70
2018-11-05T00:21:41.487Z,55.57
2018-11-05T00:24:09.963Z,54.43
2018-11-05T00:26:38.459Z,59.80
2018-11-05T00:29:07.615Z,58.17
2018-11-05T00:31:36.218Z,52.60
2018-11-05T00:34:04.912Z,52.57
2018-11-05T00:36:33.407Z,52.63
2018-11-05T00:39:01.955Z,53.33
2018-11-05T00:41:30.570Z,56.37
2018-11-05T00:43:59.045Z,52.93
2018-11-05T00:46:27.574Z,54.13
2018-11-05T00:48:56.129Z,58.60
2018-11-05T00:51:24.691Z,53.03
2018-11-05T00:53:53.271Z,52.27
2018-11-05T00:56:21.929Z,53.07
2018-11-05T00:58:50.679Z,58.23
2018-11-05T01:01:19.258Z,56.20
2018-11-05T01:03:47.784Z,55.03
2018-11-05T01:06:16.309Z,58.43
2018-11-05T01:08:45.119Z,55.67
2018-11-05T01:11:13.626Z,60.47
2018-11-05T01:13:43.100Z,57.37
2018-11-05T01:16:11.580Z,55.80
2018-11-05T01:18:40.250Z,55.47
2018-11-05T01:21:08.751Z,52.80
2018-11-05T01:23:37.252Z,47.70
2018-11-05T01:26:05.779Z,53.53
2018-11-05T01:28:34.416Z,54.77
2018-11-05T01:31:02.911Z,48.90
2018-11-05T01:33:31.391Z,53.40
2018-11-05T01:35:59.898Z,54.47
2018-11-05T01:38:28.361Z,53.23
2018-11-05T01:40:56.898Z,56.37
2018-11-05T01:43:25.483Z,57.67
2018-11-05T01:45:53.950Z,56.47
2018-11-05T01:48:22.447Z,58.50
2018-11-05T01:50:51.029Z,53.23
2018-11-05T01:53:19.538Z,55.67
2018-11-05T01:55:48.049Z,54.90
2018-11-05T01:58:16.554Z,54.57
2018-11-05T02:00:45.161Z,60.37
2018-11-05T02:03:13.725Z,58.83
2018-11-05T02:05:42.229Z,65.63
2018-11-05T02:08:10.746Z,62.40
2018-11-05T02:10:39.304Z,55.23
2018-11-05T02:13:07.853Z,57.17
2018-11-05T02:15:36.399Z,59.73
2018-11-05T02:18:04.987Z,55.37
2018-11-05T02:20:33.558Z,52.83
2018-11-05T02:23:02.047Z,62.40
2018-11-05T02:25:30.548Z,54.53
2018-11-05T02:27:59.106Z,71.83
2018-11-05T02:30:27.695Z,52.50
2018-11-05T02:32:56.177Z,74.13
2018-11-05T02:35:24.674Z,58.33
2018-11-05T02:37:53.156Z,62.23
2018-11-05T02:40:21.925Z,64.97
2018-11-05T02:42:50.921Z,66.93
2018-11-05T02:45:20.436Z,58.53
2018-11-05T02:47:49.019Z,68.87
2018-11-05T02:50:17.809Z,65.90
2018-11-05T02:52:47.027Z,69.07
2018-11-05T02:55:15.508Z,67.27
2018-11-05T02:57:44.181Z,57.53
2018-11-05T03:00:15.873Z,64.50
2018-11-05T03:02:44.418Z,49.83
2018-11-05T03:05:14.226Z,59.37
2018-11-05T03:07:43.517Z,54.33
2018-11-05T03:10:12.632Z,56.63
2018-11-05T03:12:41.837Z,60.97
2018-11-05T03:15:12.205Z,57.47
2018-11-05T03:17:40.691Z,57.27
2018-11-05T03:20:12.337Z,66.57
2018-11-05T03:22:41.429Z,66.33
2018-11-05T03:25:10.697Z,61.43
2018-11-05T03:27:39.587Z,56.43
2018-11-05T03:30:16.161Z,66.20
2018-11-05T03:32:44.734Z,69.00
2018-11-05T03:35:13.947Z,59.63
2018-11-05T03:37:43.552Z,65.33
2018-11-05T03:40:13.033Z,62.97
2018-11-05T03:42:42.241Z,68.93
2018-11-05T03:45:14.071Z,62.30
2018-11-05T03:47:42.810Z,59.77
2018-11-05T03:50:13.980Z,53.40
2018-11-05T03:52:43.025Z,55.57
2018-11-05T03:55:11.943Z,57.67
2018-11-05T03:57:40.427Z,56.37
2018-11-05T04:00:10.559Z,51.57
2018-11-05T04:02:39.085Z,55.77
2018-11-05T04:05:07.948Z,54.90
2018-11-05T04:07:37.137Z,47.17
2018-11-05T04:10:06.529Z,55.90
2018-11-05T04:12:35.036Z,53.87
2018-11-05T04:15:03.581Z,53.63
2018-11-05T04:17:32.279Z,54.30
2018-11-05T04:20:00.776Z,50.77
2018-11-05T04:22:29.387Z,54.57
2018-11-05T04:24:57.875Z,51.60
2018-11-05T04:27:27.386Z,50.60
2018-11-05T04:29:55.838Z,50.40
2018-11-05T04:32:24.383Z,52.80
2018-11-05T04:34:52.854Z,56.27
2018-11-05T04:37:21.366Z,59.20
2018-11-05T04:39:49.830Z,54.87
2018-11-05T04:42:18.969Z,56.83
2018-11-05T04:44:47.489Z,60.37
2018-11-05T04:47:15.993Z,56.17
2018-11-05T04:49:44.541Z,56.23
2018-11-05T04:52:13.017Z,60.50
2018-11-05T04:54:41.508Z,60.80
2018-11-05T04:57:10.001Z,61.87
2018-11-05T04:59:38.477Z,54.77
2018-11-05T05:02:07.015Z,55.10
2018-11-05T05:04:35.595Z,67.57
2018-11-05T05:07:04.182Z,58.83
2018-11-05T05:09:32.734Z,64.17
2018-11-05T05:12:01.248Z,63.47
2018-11-05T05:14:29.747Z,59.17
2018-11-05T05:16:58.354Z,57.70
2018-11-05T05:19:26.838Z,54.63
2018-11-05T05:21:55.310Z,53.83
2018-11-05T05:24:23.938Z,53.17
2018-11-05T05:26:52.813Z,53.27
2018-11-05T05:29:21.303Z,48.27
2018-11-05T05:31:49.806Z,48.27
2018-11-05T05:34:18.312Z,53.43
2018-11-05T05:36:46.820Z,59.77
2018-11-05T05:39:15.312Z,61.60
2018-11-05T05:41:43.804Z,53.47
2018-11-05T05:44:12.298Z,52.97
2018-11-05T05:46:40.802Z,55.03
2018-11-05T05:49:09.312Z,53.53
2018-11-05T05:51:37.830Z,55.33
2018-11-05T05:54:06.643Z,53.47
2018-11-05T05:56:35.159Z,55.53
2018-11-05T05:59:03.703Z,56.10
2018-11-05T06:01:32.181Z,58.87
2018-11-05T06:04:00.723Z,56.63
2018-11-05T06:06:29.246Z,50.57
2018-11-05T06:09:03.105Z,54.23
2018-11-05T06:11:31.623Z,53.77
2018-11-05T06:14:00.109Z,55.00
2018-11-05T06:16:28.676Z,54.60
2018-11-05T06:18:57.752Z,54.47
2018-11-05T06:21:26.254Z,51.27
2018-11-05T06:23:54.799Z,53.67
2018-11-05T06:26:23.328Z,47.87
2018-11-05T06:28:51.936Z,54.37
2018-11-05T06:31:20.525Z,52.17
2018-11-05T06:33:49.035Z,53.90
2018-11-05T06:36:17.537Z,49.33
2018-11-05T06:38:46.093Z,45.30
2018-11-05T06:41:14.683Z,50.50
2018-11-05T06:43:43.168Z,49.53
2018-11-05T06:46:13.555Z,46.60
2018-11-05T06:48:42.118Z,49.40
2018-11-05T06:51:10.643Z,48.53
2018-11-05T06:53:39.182Z,48.73
2018-11-05T06:56:07.709Z,49.60
2018-11-05T06:58:36.233Z,50.80
2018-11-05T07:01:05.151Z,45.67
2018-11-05T07:03:33.768Z,51.23
2018-11-05T07:06:02.342Z,51.47
2018-11-05T07:08:30.831Z,51.43
2018-11-05T07:10:59.353Z,41.57
2018-11-05T07:13:27.921Z,43.43
2018-11-05T07:15:56.465Z,43.83
2018-11-05T07:18:25.044Z,51.43
2018-11-05T07:20:53.581Z,49.43
2018-11-05T07:23:22.138Z,51.97
2018-11-05T07:25:54.932Z,47.87
2018-11-05T07:28:23.408Z,45.00
2018-11-05T07:30:51.884Z,51.13
2018-11-05T07:33:21.054Z,47.90
2018-11-05T07:35:49.514Z,52.10
2018-11-05T07:38:18.009Z,55.13
2018-11-05T07:40:47.040Z,50.93
2018-11-05T07:43:15.658Z,51.60
2018-11-05T07:45:44.200Z,48.63
2018-11-05T07:48:12.673Z,47.23
2018-11-05T07:50:42.059Z,50.03
2018-11-05T07:53:10.506Z,46.03
2018-11-05T07:55:39.932Z,50.40
2018-11-05T07:58:08.460Z,48.37
2018-11-05T08:00:42.333Z,46.43
2018-11-05T08:03:10.880Z,41.80
2018-11-05T08:05:39.386Z,44.63
2018-11-05T08:08:08.512Z,44.10
2018-11-05T08:10:37.036Z,40.07
2018-11-05T08:13:05.579Z,45.60
2018-11-05T08:15:34.074Z,44.17
2018-11-05T08:18:02.571Z,42.07
2018-11-05T08:20:31.683Z,37.37
2018-11-05T08:23:00.254Z,38.50
2018-11-05T08:25:29.098Z,39.60
2018-11-05T08:27:57.736Z,39.00
2018-11-05T08:30:26.760Z,37.10
2018-11-05T08:32:55.993Z,38.13
2018-11-05T08:35:24.626Z,37.20
2018-11-05T08:37:53.551Z,36.23
2018-11-05T08:40:24.170Z,41.60
2018-11-05T08:42:53.579Z,36.17
2018-11-05T08:45:24.332Z,42.37
2018-11-05T08:47:52.913Z,44.40
2018-11-05T08:50:22.471Z,43.80
2018-11-05T08:52:50.887Z,41.17
2018-11-05T08:55:21.631Z,41.00
2018-11-05T08:57:50.290Z,40.00
2018-11-05T09:00:24.565Z,41.60
2018-11-05T09:02:53.827Z,35.87
2018-11-05T09:05:22.644Z,38.13
2018-11-05T09:07:52.150Z,35.97
2018-11-05T09:10:20.818Z,33.43
2018-11-05T09:12:49.147Z,32.17
2018-11-05T09:15:19.921Z,28.47
2018-11-05T09:17:48.718Z,28.57
2018-11-05T09:20:18.138Z,31.10
2018-11-05T09:22:47.042Z,29.37
2018-11-05T09:25:16.308Z,27.83
2018-11-05T09:27:44.837Z,28.37
2018-11-05T09:30:16.593Z,28.60
2018-11-05T09:32:46.075Z,28.60
2018-11-05T09:35:14.667Z,27.87
2018-11-05T09:37:43.247Z,31.53
2018-11-05T09:40:15.121Z,28.87
2018-11-05T09:42:44.296Z,30.30
2018-11-05T09:45:15.176Z,30.13
2018-11-05T09:47:44.428Z,27.40
2018-11-05T09:50:13.335Z,28.43
2018-11-05T09:52:41.924Z,28.87
2018-11-05T09:55:11.736Z,27.70
2018-11-05T09:57:40.645Z,27.13
2018-11-05T10:00:14.136Z,28.23
2018-11-05T10:02:47.943Z,25.73
2018-11-05T10:05:16.910Z,25.03
2018-11-05T10:07:45.921Z,26.77
2018-11-05T10:10:15.332Z,23.47
2018-11-05T10:12:44.129Z,24.23
2018-11-05T10:15:13.631Z,24.63
2018-11-05T10:17:42.405Z,26.10
2018-11-05T10:20:13.811Z,24.80
2018-11-05T10:22:42.652Z,23.63
2018-11-05T10:25:12.004Z,25.43
2018-11-05T10:27:40.532Z,23.10
2018-11-05T10:30:12.537Z,22.20
2018-11-05T10:32:41.350Z,23.80
2018-11-05T10:35:09.919Z,21.27
2018-11-05T10:37:38.736Z,22.77
2018-11-05T10:40:10.188Z,23.20
2018-11-05T10:42:38.663Z,22.07
2018-11-05T10:45:08.463Z,21.37
2018-11-05T10:47:37.491Z,22.53
2018-11-05T10:50:06.605Z,20.70
2018-11-05T10:52:35.390Z,21.47
2018-11-05T10:55:04.579Z,20.40
2018-11-05T10:57:33.106Z,19.87
2018-11-05T11:00:01.650Z,19.27
2018-11-05T11:02:35.656Z,20.03
2018-11-05T11:05:04.355Z,20.33
2018-11-05T11:07:32.915Z,20.27
2018-11-05T11:10:01.436Z,21.20
2018-11-05T11:12:29.964Z,20.70
2018-11-05T11:14:58.481Z,21.03
2018-11-05T11:17:27.014Z,20.83
2018-11-05T11:19:55.528Z,21.70
2018-11-05T11:22:24.038Z,20.90
2018-11-05T11:24:52.552Z,21.03
2018-11-05T11:27:21.249Z,20.30
2018-11-05T11:29:49.776Z,20.37
2018-11-05T11:32:18.280Z,20.17
2018-11-05T11:34:46.792Z,19.87
2018-11-05T11:37:15.497Z,20.57
2018-11-05T11:39:43.938Z,20.30
2018-11-05T11:42:12.462Z,19.33
2018-11-05T11:44:40.987Z,20.40
2018-11-05T11:47:09.506Z,19.97
2018-11-05T11:49:38.008Z,20.33
2018-11-05T11:52:06.669Z,19.70
2018-11-05T11:54:35.170Z,20.33
2018-11-05T11:57:03.694Z,20.47
2018-11-05T11:59:32.266Z,21.70
2018-11-05T12:02:06.125Z,19.73
2018-11-05T12:04:34.760Z,19.93
2018-11-05T12:07:03.311Z,21.57
2018-11-05T12:09:31.886Z,21.70
2018-11-05T12:12:00.426Z,21.13
2018-11-05T12:14:28.997Z,21.30
2018-11-05T12:16:57.649Z,20.23
2018-11-05T12:19:26.153Z,20.80
2018-11-05T12:21:54.734Z,20.67
2018-11-05T12:24:23.291Z,21.07
2018-11-05T12:26:52.063Z,19.50
2018-11-05T12:29:21.720Z,20.17
2018-11-05T12:31:50.260Z,19.57
2018-11-05T12:34:18.829Z,19.53
2018-11-05T12:36:48.112Z,21.23
2018-11-05T12:39:17.676Z,19.77
2018-11-05T12:41:46.153Z,20.33
2018-11-05T12:44:14.788Z,20.00
2018-11-05T12:46:46.437Z,19.33
2018-11-05T12:49:15.109Z,19.60
2018-11-05T12:51:43.619Z,20.43
2018-11-05T12:54:12.116Z,19.47
2018-11-05T12:56:40.577Z,19.80
2018-11-05T12:59:15.461Z,19.63
2018-11-05T13:01:43.953Z,19.70
2018-11-05T13:04:12.625Z,20.47
2018-11-05T13:06:41.173Z,19.67
2018-11-05T13:09:10.267Z,19.30
2018-11-05T13:11:38.771Z,19.03
2018-11-05T13:14:07.366Z,18.43
2018-11-05T13:16:36.635Z,19.20
2018-11-05T13:19:05.527Z,20.17
2018-11-05T13:21:34.028Z,20.10
2018-11-05T13:24:02.602Z,19.43
2018-11-05T13:26:31.106Z,20.13
2018-11-05T13:28:59.592Z,19.37
2018-11-05T13:31:28.068Z,20.30
2018-11-05T13:33:56.564Z,19.73
2018-11-05T13:36:25.035Z,19.87
2018-11-05T13:38:53.598Z,19.77
2018-11-05T13:41:22.865Z,18.17
2018-11-05T13:43:51.328Z,18.50
2018-11-05T13:46:20.213Z,19.60
2018-11-05T13:48:49.011Z,18.47
2018-11-05T13:51:16.922Z,18.50
2018-11-05T13:53:45.397Z,19.17
2018-11-05T13:56:14.308Z,19.57
2018-11-05T13:58:43.164Z,18.70
2018-11-05T14:01:12.016Z,18.87
2018-11-05T14:03:40.639Z,19.67
2018-11-05T14:06:09.170Z,20.57
2018-11-05T14:08:37.665Z,20.17
2018-11-05T14:11:06.606Z,19.40
2018-11-05T14:13:35.170Z,18.90
2018-11-05T14:16:03.649Z,19.20
2018-11-05T14:18:32.168Z,19.13
2018-11-05T14:21:00.727Z,19.10
2018-11-05T14:23:29.198Z,19.77
2018-11-05T14:25:57.807Z,20.27
2018-11-05T14:28:26.478Z,18.80
2018-11-05T14:30:54.872Z,19.50
2018-11-05T14:33:23.456Z,20.93
2018-11-05T14:35:52.013Z,20.53
2018-11-05T14:38:23.466Z,20.77
2018-11-05T14:40:52.006Z,20.10
2018-11-05T14:43:20.643Z,19.80
2018-11-05T14:45:49.235Z,20.27
2018-11-05T14:48:17.690Z,20.00
2018-11-05T14:50:46.327Z,19.97
2018-11-05T14:53:14.760Z,20.70
2018-11-05T14:55:43.273Z,19.77
2018-11-05T14:58:11.799Z,19.67
2018-11-05T15:00:40.320Z,19.23
2018-11-05T15:03:09.037Z,20.57
2018-11-05T15:05:37.639Z,20.87
2018-11-05T15:08:06.697Z,19.83
2018-11-05T15:10:35.217Z,18.93
2018-11-05T15:13:03.755Z,21.60
2018-11-05T15:15:32.248Z,20.07
2018-11-05T15:18:01.069Z,20.30
2018-11-05T15:20:29.704Z,19.87
2018-11-05T15:22:59.056Z,19.57
2018-11-05T15:25:27.673Z,20.63
2018-11-05T15:27:56.307Z,20.40
2018-11-05T15:33:03.736Z,20.50
2018-11-05T15:35:32.263Z,20.80
2018-11-05T15:38:00.799Z,21.13
2018-11-05T15:40:29.362Z,20.00
2018-11-05T15:42:57.962Z,20.30
2018-11-05T15:45:26.478Z,19.53
2018-11-05T15:47:54.986Z,22.00
2018-11-05T15:50:23.492Z,19.80
2018-11-05T15:52:52.415Z,20.50
2018-11-05T15:55:20.549Z,22.00
2018-11-05T15:57:49.060Z,20.53
2018-11-05T16:00:21.857Z,21.63
2018-11-05T16:02:51.934Z,25.33
2018-11-05T16:05:20.568Z,25.43
2018-11-05T16:07:49.276Z,27.23
2018-11-05T16:10:18.114Z,24.03
2018-11-05T16:12:46.674Z,21.40
2018-11-05T16:15:15.230Z,23.40
2018-11-05T16:17:43.721Z,22.77
2018-11-05T16:20:14.392Z,23.83
2018-11-05T16:22:43.213Z,22.53
2018-11-05T16:25:11.896Z,22.30
2018-11-05T16:27:40.669Z,22.30
2018-11-05T16:30:11.486Z,19.97
2018-11-05T16:32:40.138Z,22.57
2018-11-05T16:35:08.954Z,22.10
2018-11-05T16:37:37.761Z,21.97
2018-11-05T16:40:08.967Z,21.57
2018-11-05T16:42:37.816Z,22.93
2018-11-05T16:45:07.141Z,20.43
2018-11-05T16:47:35.985Z,23.37
2018-11-05T16:50:06.975Z,22.33
2018-11-05T16:52:35.449Z,22.70
2018-11-05T16:55:03.986Z,23.73
2018-11-05T16:57:33.441Z,24.47
2018-11-05T17:00:02.038Z,24.60
2018-11-05T17:02:31.484Z,25.93
2018-11-05T17:04:59.848Z,24.00
2018-11-05T17:07:28.335Z,29.37
2018-11-05T17:09:56.928Z,28.93
2018-11-05T17:12:25.445Z,28.33
2018-11-05T17:14:54.119Z,28.80
2018-11-05T17:17:22.800Z,28.93
2018-11-05T17:19:51.374Z,30.30
2018-11-05T17:22:19.955Z,27.00
2018-11-05T17:24:48.558Z,27.30
2018-11-05T17:27:17.175Z,30.37
2018-11-05T17:29:45.737Z,28.40
2018-11-05T17:32:14.241Z,29.00
2018-11-05T17:34:42.774Z,30.53
2018-11-05T17:37:11.286Z,29.40
2018-11-05T17:39:39.794Z,28.13
2018-11-05T17:42:08.309Z,28.60
2018-11-05T17:44:36.787Z,28.70
2018-11-05T17:47:05.415Z,29.10
2018-11-05T17:49:33.927Z,32.20
2018-11-05T17:52:02.996Z,30.40
2018-11-05T17:54:31.610Z,30.77
2018-11-05T17:57:00.212Z,31.03
2018-11-05T17:59:28.707Z,33.03
2018-11-05T18:01:57.246Z,30.10
2018-11-05T18:04:25.854Z,29.03
2018-11-05T18:06:54.324Z,33.20
2018-11-05T18:09:22.859Z,32.20
2018-11-05T18:11:51.414Z,31.27
2018-11-05T18:14:19.909Z,30.70
2018-11-05T18:16:48.482Z,31.23
2018-11-05T18:19:17.071Z,27.87
2018-11-05T18:21:45.557Z,33.90
2018-11-05T18:24:14.098Z,30.47
2018-11-05T18:26:42.588Z,34.27
2018-11-05T18:29:11.117Z,28.27
2018-11-05T18:31:39.637Z,29.27
2018-11-05T18:34:08.211Z,30.47
2018-11-05T18:36:36.852Z,32.33
2018-11-05T18:39:08.447Z,30.00
2018-11-05T18:41:37.316Z,29.83
2018-11-05T18:44:06.081Z,34.83
2018-11-05T18:46:34.701Z,30.90
2018-11-05T18:49:03.241Z,31.73
2018-11-05T18:51:31.874Z,30.60
2018-11-05T18:54:00.368Z,33.73
2018-11-05T18:56:28.906Z,31.33
2018-11-05T18:58:57.395Z,34.63
2018-11-05T19:01:25.947Z,32.63
2018-11-05T19:03:54.648Z,31.63
2018-11-05T19:06:23.303Z,33.40
2018-11-05T19:08:51.824Z,31.97
2018-11-05T19:11:20.401Z,30.83
2018-11-05T19:13:49.028Z,37.57
2018-11-05T19:16:17.569Z,32.47
2018-11-05T19:18:46.103Z,30.33
2018-11-05T19:21:14.661Z,33.30
2018-11-05T19:23:43.344Z,31.47
2018-11-05T19:26:11.718Z,31.60
2018-11-05T19:28:40.340Z,33.73
2018-11-05T19:31:08.865Z,32.07
2018-11-05T19:33:37.511Z,33.07
2018-11-05T19:36:07.022Z,30.20
2018-11-05T19:38:35.556Z,32.10
2018-11-05T19:41:04.402Z,28.63
2018-11-05T19:43:33.057Z,28.40
2018-11-05T19:46:01.565Z,27.93
2018-11-05T19:48:30.125Z,30.63
2018-11-05T19:50:58.808Z,30.40
2018-11-05T19:53:27.376Z,28.00
2018-11-05T19:55:55.869Z,30.53
2018-11-05T19:58:24.361Z,37.47
2018-11-05T20:00:52.995Z,30.33
2018-11-05T20:03:21.482Z,30.77
2018-11-05T20:05:50.140Z,31.77
2018-11-05T20:08:18.544Z,30.13
2018-11-05T20:10:47.042Z,30.87
2018-11-05T20:13:15.672Z,31.00
2018-11-05T20:15:44.261Z,28.63
2018-11-05T20:18:12.881Z,31.17
2018-11-05T20:20:41.422Z,31.03
2018-11-05T20:23:09.959Z,30.37
2018-11-05T20:25:38.495Z,30.90
2018-11-05T20:28:07.084Z,30.03
2018-11-05T20:30:35.592Z,28.23
2018-11-05T20:33:05.534Z,33.20
2018-11-05T20:35:33.945Z,30.60
2018-11-05T20:38:02.514Z,30.50
2018-11-05T20:40:31.108Z,29.43
2018-11-05T20:42:59.568Z,30.37
2018-11-05T20:45:28.349Z,30.33
2018-11-05T20:47:56.854Z,30.27
2018-11-05T20:50:25.405Z,31.87
2018-11-05T20:52:54.419Z,31.33
2018-11-05T20:55:22.945Z,33.53
2018-11-05T20:57:51.457Z,33.47
2018-11-05T21:00:20.998Z,32.47
2018-11-05T21:02:49.540Z,30.93
2018-11-05T21:05:18.081Z,34.37
2018-11-05T21:07:46.603Z,36.80
2018-11-05T21:10:15.554Z,35.27
2018-11-05T21:12:44.531Z,32.07
2018-11-05T21:15:15.263Z,35.47
2018-11-05T21:17:44.716Z,32.90
2018-11-05T21:20:13.857Z,33.47
2018-11-05T21:22:46.702Z,36.10
2018-11-05T21:25:15.975Z,37.67
2018-11-05T21:27:45.043Z,36.03
2018-11-05T21:30:15.852Z,36.50
2018-11-05T21:32:44.443Z,34.50
2018-11-05T21:35:14.711Z,34.07
2018-11-05T21:37:43.496Z,30.83
2018-11-05T21:40:13.186Z,37.00
2018-11-05T21:42:41.791Z,34.53
2018-11-05T21:45:11.584Z,36.10
2018-11-05T21:47:40.680Z,31.30
2018-11-05T21:50:11.836Z,36.93
2018-11-05T21:52:41.242Z,34.60
2018-11-05T21:55:10.026Z,33.67
2018-11-05T21:57:40.664Z,34.43
2018-11-05T22:00:14.675Z,31.43
2018-11-05T22:02:48.681Z,32.70
2018-11-05T22:05:17.574Z,34.70
2018-11-05T22:07:46.654Z,35.53
2018-11-05T22:10:16.782Z,30.67
2018-11-05T22:12:47.168Z,37.40
2018-11-05T22:15:15.634Z,36.57
2018-11-05T22:17:44.192Z,33.80
2018-11-05T22:20:13.396Z,32.27
2018-11-05T22:22:41.950Z,34.13
2018-11-05T22:25:10.961Z,36.07
2018-11-05T22:27:39.635Z,36.20
2018-11-05T22:30:09.628Z,35.30
2018-11-05T22:32:38.128Z,36.80
2018-11-05T22:35:06.938Z,34.97
2018-11-05T22:37:35.441Z,37.50
2018-11-05T22:40:05.175Z,36.10
2018-11-05T22:42:34.225Z,34.60
2018-11-05T22:45:02.750Z,35.77
2018-11-05T22:47:31.290Z,34.50
2018-11-05T22:49:59.853Z,36.73
2018-11-05T22:52:28.863Z,33.67
2018-11-05T22:54:57.574Z,36.10
2018-11-05T22:57:26.323Z,34.87
2018-11-05T22:59:54.933Z,37.63
2018-11-05T23:02:23.425Z,36.70
2018-11-05T23:04:52.834Z,38.80
2018-11-05T23:07:21.325Z,34.87
2018-11-05T23:09:49.821Z,37.17
2018-11-05T23:12:18.309Z,35.00
2018-11-05T23:14:46.792Z,35.70
2018-11-05T23:17:15.590Z,33.20
2018-11-05T23:19:44.073Z,35.50
2018-11-05T23:22:12.629Z,35.57
2018-11-05T23:24:41.140Z,37.00
2018-11-05T23:27:09.625Z,33.17
2018-11-05T23:29:38.113Z,34.37
2018-11-05T23:32:06.768Z,37.20
2018-11-05T23:34:35.310Z,34.60
2018-11-05T23:37:03.783Z,32.63
2018-11-05T23:39:32.314Z,34.27
2018-11-05T23:42:00.885Z,35.97
2018-11-05T23:44:29.409Z,33.30
2018-11-05T23:46:57.897Z,32.23
2018-11-05T23:49:26.395Z,31.47
2018-11-05T23:51:54.965Z,32.23
2018-11-05T23:54:23.480Z,31.13
2018-11-05T23:56:52.557Z,30.03
2018-11-05T23:59:21.042Z,31.87
